sensor_id;sensor_type;location;lat;lon;timestamp;temperature;humidity
25512;DHT22;13414;44.534;18.700;2023-11-21T00:02:24;6.70;99.90
25512;DHT22;13414;44.534;18.700;2023-11-21T00:04:53;6.60;99.90
25512;DHT22;13414;44.534;18.700;2023-11-21T00:07:20;6.50;99.90
25512;DHT22;13414;44.534;18.700;2023-11-21T00:09:48;6.50;99.90
25512;DHT22;13414;44.534;18.700;2023-11-21T00:12:17;6.40;99.90
25512;DHT22;13414;44.534;18.700;2023-11-21T00:15:20;6.50;99.90
25512;DHT22;13414;44.534;18.700;2023-11-21T00:17:48;6.60;99.90
25512;DHT22;13414;44.534;18.700;2023-11-21T00:20:15;6.70;99.90
25512;DHT22;13414;44.534;18.700;2023-11-21T00:22:43;6.70;99.90
25512;DHT22;13414;44.534;18.700;2023-11-21T00:25:13;6.70;99.90
25512;DHT22;13414;44.534;18.700;2023-11-21T00:27:43;6.70;99.90
25512;DHT22;13414;44.534;18.700;2023-11-21T00:30:12;6.70;99.90
25512;DHT22;13414;44.534;18.700;2023-11-21T00:32:41;6.70;99.90
25512;DHT22;13414;44.534;18.700;2023-11-21T00:35:11;6.70;99.90
25512;DHT22;13414;44.534;18.700;2023-11-21T00:37:41;6.70;99.90
25512;DHT22;13414;44.534;18.700;2023-11-21T00:40:13;6.70;99.90
25512;DHT22;13414;44.534;18.700;2023-11-21T00:42:44;6.50;99.90
25512;DHT22;13414;44.534;18.700;2023-11-21T00:45:13;6.40;99.90
25512;DHT22;13414;44.534;18.700;2023-11-21T00:47:44;6.40;99.90
25512;DHT22;13414;44.534;18.700;2023-11-21T00:50:15;6.30;99.90
25512;DHT22;13414;44.534;18.700;2023-11-21T00:52:45;6.30;99.90
25512;DHT22;13414;44.534;18.700;2023-11-21T00:55:16;6.20;99.90
25512;DHT22;13414;44.534;18.700;2023-11-21T00:57:44;6.20;99.90
25512;DHT22;13414;44.534;18.700;2023-11-21T01:00:19;6.30;99.90
25512;DHT22;13414;44.534;18.700;2023-11-21T01:02:52;6.40;99.90
25512;DHT22;13414;44.534;18.700;2023-11-21T01:05:26;6.40;99.90
25512;DHT22;13414;44.534;18.700;2023-11-21T01:07:58;6.40;99.90
25512;DHT22;13414;44.534;18.700;2023-11-21T01:10:32;6.30;99.90
25512;DHT22;13414;44.534;18.700;2023-11-21T01:13:03;6.20;99.90
25512;DHT22;13414;44.534;18.700;2023-11-21T01:15:34;6.20;99.90
25512;DHT22;13414;44.534;18.700;2023-11-21T01:18:07;6.20;99.90
25512;DHT22;13414;44.534;18.700;2023-11-21T01:20:37;6.10;99.90
25512;DHT22;13414;44.534;18.700;2023-11-21T01:23:11;6.10;99.90
25512;DHT22;13414;44.534;18.700;2023-11-21T01:25:39;6.10;99.90
25512;DHT22;13414;44.534;18.700;2023-11-21T01:28:07;6.10;99.90
25512;DHT22;13414;44.534;18.700;2023-11-21T01:30:36;6.10;99.90
25512;DHT22;13414;44.534;18.700;2023-11-21T01:33:11;6.10;99.90
25512;DHT22;13414;44.534;18.700;2023-11-21T01:35:42;6.10;99.90
25512;DHT22;13414;44.534;18.700;2023-11-21T01:38:12;6.20;99.90
25512;DHT22;13414;44.534;18.700;2023-11-21T01:40:40;6.20;99.90
25512;DHT22;13414;44.534;18.700;2023-11-21T01:43:09;6.30;99.90
25512;DHT22;13414;44.534;18.700;2023-11-21T01:45:36;6.20;99.90
25512;DHT22;13414;44.534;18.700;2023-11-21T01:48:06;6.20;99.90
25512;DHT22;13414;44.534;18.700;2023-11-21T01:50:34;6.10;99.90
25512;DHT22;13414;44.534;18.700;2023-11-21T01:53:02;6.20;99.90
25512;DHT22;13414;44.534;18.700;2023-11-21T01:55:30;6.10;99.90
25512;DHT22;13414;44.534;18.700;2023-11-21T01:57:58;6.00;99.90
25512;DHT22;13414;44.534;18.700;2023-11-21T02:00:26;6.00;99.90
25512;DHT22;13414;44.534;18.700;2023-11-21T02:02:55;6.10;99.90
25512;DHT22;13414;44.534;18.700;2023-11-21T02:05:26;6.20;99.90
25512;DHT22;13414;44.534;18.700;2023-11-21T02:07:56;6.20;99.90
25512;DHT22;13414;44.534;18.700;2023-11-21T02:10:24;6.30;99.90
25512;DHT22;13414;44.534;18.700;2023-11-21T02:12:52;6.30;99.90
25512;DHT22;13414;44.534;18.700;2023-11-21T02:15:21;6.30;99.90
25512;DHT22;13414;44.534;18.700;2023-11-21T02:17:50;6.30;99.90
25512;DHT22;13414;44.534;18.700;2023-11-21T02:20:20;6.30;99.90
25512;DHT22;13414;44.534;18.700;2023-11-21T02:22:51;6.30;99.90
25512;DHT22;13414;44.534;18.700;2023-11-21T02:25:22;6.30;99.90
25512;DHT22;13414;44.534;18.700;2023-11-21T02:27:50;6.30;99.90
25512;DHT22;13414;44.534;18.700;2023-11-21T02:30:19;6.30;99.90
25512;DHT22;13414;44.534;18.700;2023-11-21T02:32:48;6.10;99.90
25512;DHT22;13414;44.534;18.700;2023-11-21T02:35:16;6.00;99.90
25512;DHT22;13414;44.534;18.700;2023-11-21T02:37:43;5.90;99.90
25512;DHT22;13414;44.534;18.700;2023-11-21T02:40:13;6.00;99.90
25512;DHT22;13414;44.534;18.700;2023-11-21T02:42:43;6.10;99.90
25512;DHT22;13414;44.534;18.700;2023-11-21T02:45:13;6.20;99.90
25512;DHT22;13414;44.534;18.700;2023-11-21T02:47:42;6.30;99.90
25512;DHT22;13414;44.534;18.700;2023-11-21T02:50:10;6.40;99.90
25512;DHT22;13414;44.534;18.700;2023-11-21T02:52:38;6.40;99.90
25512;DHT22;13414;44.534;18.700;2023-11-21T02:55:07;6.50;99.90
25512;DHT22;13414;44.534;18.700;2023-11-21T02:57:37;6.50;99.90
25512;DHT22;13414;44.534;18.700;2023-11-21T03:00:07;6.50;99.90
25512;DHT22;13414;44.534;18.700;2023-11-21T03:02:35;6.40;99.90
25512;DHT22;13414;44.534;18.700;2023-11-21T03:05:06;6.50;99.90
25512;DHT22;13414;44.534;18.700;2023-11-21T03:07:35;6.50;99.90
25512;DHT22;13414;44.534;18.700;2023-11-21T03:10:04;6.50;99.90
25512;DHT22;13414;44.534;18.700;2023-11-21T03:12:32;6.50;99.90
25512;DHT22;13414;44.534;18.700;2023-11-21T03:15:01;6.50;99.90
25512;DHT22;13414;44.534;18.700;2023-11-21T03:17:29;6.50;99.90
25512;DHT22;13414;44.534;18.700;2023-11-21T03:19:57;6.60;99.90
25512;DHT22;13414;44.534;18.700;2023-11-21T03:22:24;6.60;99.90
25512;DHT22;13414;44.534;18.700;2023-11-21T03:24:52;6.60;99.90
25512;DHT22;13414;44.534;18.700;2023-11-21T03:27:22;6.60;99.90
25512;DHT22;13414;44.534;18.700;2023-11-21T03:29:50;6.70;99.90
25512;DHT22;13414;44.534;18.700;2023-11-21T03:32:19;6.70;99.90
25512;DHT22;13414;44.534;18.700;2023-11-21T03:34:54;6.80;99.90
25512;DHT22;13414;44.534;18.700;2023-11-21T03:37:22;6.80;99.90
25512;DHT22;13414;44.534;18.700;2023-11-21T03:39:50;6.70;99.90
25512;DHT22;13414;44.534;18.700;2023-11-21T03:42:18;6.70;99.90
25512;DHT22;13414;44.534;18.700;2023-11-21T03:44:46;6.90;99.90
25512;DHT22;13414;44.534;18.700;2023-11-21T03:47:14;6.90;99.90
25512;DHT22;13414;44.534;18.700;2023-11-21T03:49:43;7.00;99.90
25512;DHT22;13414;44.534;18.700;2023-11-21T03:52:11;7.00;99.90
25512;DHT22;13414;44.534;18.700;2023-11-21T03:54:39;7.00;99.90
25512;DHT22;13414;44.534;18.700;2023-11-21T03:57:08;7.00;99.90
25512;DHT22;13414;44.534;18.700;2023-11-21T03:59:36;7.00;99.90
25512;DHT22;13414;44.534;18.700;2023-11-21T04:02:07;7.00;99.90
25512;DHT22;13414;44.534;18.700;2023-11-21T04:04:35;6.90;99.90
25512;DHT22;13414;44.534;18.700;2023-11-21T04:07:06;6.90;99.90
25512;DHT22;13414;44.534;18.700;2023-11-21T04:09:37;6.90;99.90
25512;DHT22;13414;44.534;18.700;2023-11-21T04:12:08;6.90;99.90
25512;DHT22;13414;44.534;18.700;2023-11-21T04:14:36;6.90;99.90
25512;DHT22;13414;44.534;18.700;2023-11-21T04:17:11;6.90;99.90
25512;DHT22;13414;44.534;18.700;2023-11-21T04:19:38;6.90;99.90
25512;DHT22;13414;44.534;18.700;2023-11-21T04:22:10;6.90;99.90
25512;DHT22;13414;44.534;18.700;2023-11-21T04:24:42;6.90;99.90
25512;DHT22;13414;44.534;18.700;2023-11-21T04:27:10;6.90;99.90
25512;DHT22;13414;44.534;18.700;2023-11-21T04:29:37;6.90;99.90
25512;DHT22;13414;44.534;18.700;2023-11-21T04:32:05;6.90;99.90
25512;DHT22;13414;44.534;18.700;2023-11-21T04:34:34;7.00;99.90
25512;DHT22;13414;44.534;18.700;2023-11-21T04:37:01;6.90;99.90
25512;DHT22;13414;44.534;18.700;2023-11-21T04:39:33;6.90;99.90
25512;DHT22;13414;44.534;18.700;2023-11-21T04:42:03;6.80;99.90
25512;DHT22;13414;44.534;18.700;2023-11-21T04:44:35;6.80;99.90
25512;DHT22;13414;44.534;18.700;2023-11-21T04:47:02;6.90;99.90
25512;DHT22;13414;44.534;18.700;2023-11-21T04:49:30;7.00;99.90
25512;DHT22;13414;44.534;18.700;2023-11-21T04:51:58;7.10;99.90
25512;DHT22;13414;44.534;18.700;2023-11-21T04:54:27;7.10;99.90
25512;DHT22;13414;44.534;18.700;2023-11-21T04:56:56;7.20;99.90
25512;DHT22;13414;44.534;18.700;2023-11-21T04:59:24;7.20;99.90
25512;DHT22;13414;44.534;18.700;2023-11-21T05:01:54;7.10;99.90
25512;DHT22;13414;44.534;18.700;2023-11-21T05:04:21;7.00;99.90
25512;DHT22;13414;44.534;18.700;2023-11-21T05:06:49;7.10;99.90
25512;DHT22;13414;44.534;18.700;2023-11-21T05:09:17;7.20;99.90
25512;DHT22;13414;44.534;18.700;2023-11-21T05:11:45;7.20;99.90
25512;DHT22;13414;44.534;18.700;2023-11-21T05:14:14;7.20;99.90
25512;DHT22;13414;44.534;18.700;2023-11-21T05:16:42;7.20;99.90
25512;DHT22;13414;44.534;18.700;2023-11-21T05:19:09;7.20;99.90
25512;DHT22;13414;44.534;18.700;2023-11-21T05:21:39;7.20;99.90
25512;DHT22;13414;44.534;18.700;2023-11-21T05:24:07;7.30;99.90
25512;DHT22;13414;44.534;18.700;2023-11-21T05:26:35;7.30;99.90
25512;DHT22;13414;44.534;18.700;2023-11-21T05:29:03;7.30;99.90
25512;DHT22;13414;44.534;18.700;2023-11-21T05:31:33;7.30;99.90
25512;DHT22;13414;44.534;18.700;2023-11-21T05:34:00;7.30;99.90
25512;DHT22;13414;44.534;18.700;2023-11-21T05:36:28;7.40;99.90
25512;DHT22;13414;44.534;18.700;2023-11-21T05:38:56;7.40;99.90
25512;DHT22;13414;44.534;18.700;2023-11-21T05:41:24;7.40;99.90
25512;DHT22;13414;44.534;18.700;2023-11-21T05:43:52;7.50;99.90
25512;DHT22;13414;44.534;18.700;2023-11-21T05:46:20;7.50;99.90
25512;DHT22;13414;44.534;18.700;2023-11-21T05:48:49;7.50;99.90
25512;DHT22;13414;44.534;18.700;2023-11-21T05:51:17;7.50;99.90
25512;DHT22;13414;44.534;18.700;2023-11-21T05:53:44;7.60;99.90
25512;DHT22;13414;44.534;18.700;2023-11-21T05:56:12;7.60;99.90
25512;DHT22;13414;44.534;18.700;2023-11-21T05:58:41;7.60;99.90
25512;DHT22;13414;44.534;18.700;2023-11-21T06:01:08;7.70;99.90
25512;DHT22;13414;44.534;18.700;2023-11-21T06:03:39;7.70;99.90
25512;DHT22;13414;44.534;18.700;2023-11-21T06:06:11;7.70;99.90
25512;DHT22;13414;44.534;18.700;2023-11-21T06:08:38;7.60;99.90
25512;DHT22;13414;44.534;18.700;2023-11-21T06:11:06;7.60;99.90
25512;DHT22;13414;44.534;18.700;2023-11-21T06:13:34;7.70;99.90
25512;DHT22;13414;44.534;18.700;2023-11-21T06:16:02;7.60;99.90
25512;DHT22;13414;44.534;18.700;2023-11-21T06:18:32;7.70;99.90
25512;DHT22;13414;44.534;18.700;2023-11-21T06:20:59;7.80;99.90
25512;DHT22;13414;44.534;18.700;2023-11-21T06:23:28;7.80;99.90
25512;DHT22;13414;44.534;18.700;2023-11-21T06:25:56;7.90;99.90
25512;DHT22;13414;44.534;18.700;2023-11-21T06:28:24;8.00;99.90
25512;DHT22;13414;44.534;18.700;2023-11-21T06:30:52;8.00;99.90
25512;DHT22;13414;44.534;18.700;2023-11-21T06:33:20;8.00;99.90
25512;DHT22;13414;44.534;18.700;2023-11-21T06:35:47;8.10;99.90
25512;DHT22;13414;44.534;18.700;2023-11-21T06:38:15;8.10;99.90
25512;DHT22;13414;44.534;18.700;2023-11-21T06:40:45;8.10;99.90
25512;DHT22;13414;44.534;18.700;2023-11-21T06:43:12;8.10;99.90
25512;DHT22;13414;44.534;18.700;2023-11-21T06:45:40;8.10;99.90
25512;DHT22;13414;44.534;18.700;2023-11-21T06:48:08;8.00;99.90
25512;DHT22;13414;44.534;18.700;2023-11-21T06:50:35;8.10;99.90
25512;DHT22;13414;44.534;18.700;2023-11-21T06:53:03;8.10;99.90
25512;DHT22;13414;44.534;18.700;2023-11-21T06:55:32;8.30;99.90
25512;DHT22;13414;44.534;18.700;2023-11-21T06:58:02;8.30;99.90
25512;DHT22;13414;44.534;18.700;2023-11-21T07:00:36;8.50;99.90
25512;DHT22;13414;44.534;18.700;2023-11-21T07:03:06;8.50;99.90
25512;DHT22;13414;44.534;18.700;2023-11-21T07:06:04;8.60;99.90
25512;DHT22;13414;44.534;18.700;2023-11-21T07:08:43;8.70;99.90
25512;DHT22;13414;44.534;18.700;2023-11-21T07:18:28;8.90;99.90
25512;DHT22;13414;44.534;18.700;2023-11-21T07:21:07;9.00;99.90
25512;DHT22;13414;44.534;18.700;2023-11-21T07:23:51;9.20;99.90
25512;DHT22;13414;44.534;18.700;2023-11-21T07:26:42;9.30;99.90
25512;DHT22;13414;44.534;18.700;2023-11-21T07:29:21;9.40;99.90
25512;DHT22;13414;44.534;18.700;2023-11-21T07:31:52;9.50;99.90
25512;DHT22;13414;44.534;18.700;2023-11-21T07:34:28;9.60;99.90
25512;DHT22;13414;44.534;18.700;2023-11-21T07:37:06;9.70;99.90
25512;DHT22;13414;44.534;18.700;2023-11-21T07:39:44;9.70;99.90
25512;DHT22;13414;44.534;18.700;2023-11-21T07:42:28;9.80;99.90
25512;DHT22;13414;44.534;18.700;2023-11-21T07:45:12;9.90;99.90
25512;DHT22;13414;44.534;18.700;2023-11-21T07:54:15;10.20;99.90
25512;DHT22;13414;44.534;18.700;2023-11-21T07:56:49;10.30;99.90
25512;DHT22;13414;44.534;18.700;2023-11-21T07:59:26;10.30;99.90
25512;DHT22;13414;44.534;18.700;2023-11-21T08:05:32;10.50;99.90
25512;DHT22;13414;44.534;18.700;2023-11-21T08:08:00;10.40;99.90
25512;DHT22;13414;44.534;18.700;2023-11-21T08:10:30;10.40;99.90
25512;DHT22;13414;44.534;18.700;2023-11-21T08:12:57;10.30;99.90
25512;DHT22;13414;44.534;18.700;2023-11-21T08:15:25;10.30;99.90
25512;DHT22;13414;44.534;18.700;2023-11-21T08:17:55;10.10;99.90
25512;DHT22;13414;44.534;18.700;2023-11-21T08:20:23;10.00;99.90
25512;DHT22;13414;44.534;18.700;2023-11-21T08:22:51;10.00;99.90
25512;DHT22;13414;44.534;18.700;2023-11-21T08:25:19;9.90;99.90
25512;DHT22;13414;44.534;18.700;2023-11-21T08:27:48;9.70;99.90
25512;DHT22;13414;44.534;18.700;2023-11-21T08:30:16;9.70;99.90
25512;DHT22;13414;44.534;18.700;2023-11-21T08:32:48;9.80;99.90
25512;DHT22;13414;44.534;18.700;2023-11-21T08:35:15;9.80;99.90
25512;DHT22;13414;44.534;18.700;2023-11-21T08:37:43;9.90;99.90
25512;DHT22;13414;44.534;18.700;2023-11-21T08:40:12;9.90;99.90
25512;DHT22;13414;44.534;18.700;2023-11-21T08:42:42;10.00;99.90
25512;DHT22;13414;44.534;18.700;2023-11-21T08:45:13;10.00;99.90
25512;DHT22;13414;44.534;18.700;2023-11-21T08:47:41;10.00;99.90
25512;DHT22;13414;44.534;18.700;2023-11-21T08:50:20;10.10;99.90
25512;DHT22;13414;44.534;18.700;2023-11-21T08:52:48;10.10;99.90
25512;DHT22;13414;44.534;18.700;2023-11-21T08:55:19;10.10;99.90
25512;DHT22;13414;44.534;18.700;2023-11-21T08:57:47;10.10;99.90
25512;DHT22;13414;44.534;18.700;2023-11-21T09:00:18;10.10;99.90
25512;DHT22;13414;44.534;18.700;2023-11-21T09:02:49;10.10;99.90
25512;DHT22;13414;44.534;18.700;2023-11-21T09:05:19;10.10;99.90
25512;DHT22;13414;44.534;18.700;2023-11-21T09:07:47;10.10;99.90
25512;DHT22;13414;44.534;18.700;2023-11-21T09:10:15;10.10;99.90
25512;DHT22;13414;44.534;18.700;2023-11-21T09:12:43;10.10;99.90
25512;DHT22;13414;44.534;18.700;2023-11-21T09:15:11;10.00;99.90
25512;DHT22;13414;44.534;18.700;2023-11-21T09:17:44;9.90;99.90
25512;DHT22;13414;44.534;18.700;2023-11-21T09:20:12;9.80;99.90
25512;DHT22;13414;44.534;18.700;2023-11-21T09:22:41;9.90;99.90
25512;DHT22;13414;44.534;18.700;2023-11-21T09:25:10;9.90;99.90
25512;DHT22;13414;44.534;18.700;2023-11-21T09:27:39;9.90;99.90
25512;DHT22;13414;44.534;18.700;2023-11-21T09:30:07;9.90;99.90
25512;DHT22;13414;44.534;18.700;2023-11-21T09:32:37;9.90;99.90
25512;DHT22;13414;44.534;18.700;2023-11-21T09:35:08;9.90;99.90
25512;DHT22;13414;44.534;18.700;2023-11-21T09:37:36;9.90;99.90
25512;DHT22;13414;44.534;18.700;2023-11-21T09:40:04;9.90;99.90
25512;DHT22;13414;44.534;18.700;2023-11-21T09:42:40;9.90;99.90
25512;DHT22;13414;44.534;18.700;2023-11-21T09:45:14;9.80;99.90
25512;DHT22;13414;44.534;18.700;2023-11-21T09:47:44;9.80;99.90
25512;DHT22;13414;44.534;18.700;2023-11-21T09:50:15;9.60;99.90
25512;DHT22;13414;44.534;18.700;2023-11-21T09:52:54;9.40;99.90
25512;DHT22;13414;44.534;18.700;2023-11-21T09:55:24;9.20;99.90
25512;DHT22;13414;44.534;18.700;2023-11-21T09:57:56;9.10;99.90
25512;DHT22;13414;44.534;18.700;2023-11-21T10:00:24;9.30;99.90
25512;DHT22;13414;44.534;18.700;2023-11-21T10:02:54;9.50;99.90
25512;DHT22;13414;44.534;18.700;2023-11-21T10:05:24;9.70;99.90
25512;DHT22;13414;44.534;18.700;2023-11-21T10:07:52;9.70;99.90
25512;DHT22;13414;44.534;18.700;2023-11-21T10:10:22;9.90;99.90
25512;DHT22;13414;44.534;18.700;2023-11-21T10:12:55;9.90;99.90
25512;DHT22;13414;44.534;18.700;2023-11-21T10:15:23;9.90;99.90
25512;DHT22;13414;44.534;18.700;2023-11-21T10:17:55;9.90;99.90
25512;DHT22;13414;44.534;18.700;2023-11-21T10:20:29;9.90;99.90
25512;DHT22;13414;44.534;18.700;2023-11-21T10:23:05;10.00;99.90
25512;DHT22;13414;44.534;18.700;2023-11-21T10:25:47;10.00;99.90
25512;DHT22;13414;44.534;18.700;2023-11-21T10:28:20;10.10;99.90
25512;DHT22;13414;44.534;18.700;2023-11-21T10:31:12;9.90;99.90
25512;DHT22;13414;44.534;18.700;2023-11-21T10:33:40;9.90;99.90
25512;DHT22;13414;44.534;18.700;2023-11-21T10:36:11;9.70;99.90
25512;DHT22;13414;44.534;18.700;2023-11-21T10:42:25;9.70;99.90
25512;DHT22;13414;44.534;18.700;2023-11-21T10:49:27;9.90;99.90
25512;DHT22;13414;44.534;18.700;2023-11-21T10:55:27;9.90;99.90
25512;DHT22;13414;44.534;18.700;2023-11-21T10:57:59;9.90;99.90
25512;DHT22;13414;44.534;18.700;2023-11-21T11:04:02;9.90;99.90
25512;DHT22;13414;44.534;18.700;2023-11-21T11:06:35;9.90;99.90
25512;DHT22;13414;44.534;18.700;2023-11-21T11:09:06;9.80;99.90
25512;DHT22;13414;44.534;18.700;2023-11-21T11:11:35;9.60;99.90
25512;DHT22;13414;44.534;18.700;2023-11-21T11:14:05;9.50;99.90
25512;DHT22;13414;44.534;18.700;2023-11-21T11:16:33;9.50;99.90
25512;DHT22;13414;44.534;18.700;2023-11-21T11:19:00;9.50;99.90
25512;DHT22;13414;44.534;18.700;2023-11-21T11:21:45;9.40;99.90
25512;DHT22;13414;44.534;18.700;2023-11-21T11:24:44;9.50;99.90
25512;DHT22;13414;44.534;18.700;2023-11-21T11:27:25;9.50;99.90
25512;DHT22;13414;44.534;18.700;2023-11-21T11:30:26;9.50;99.90
25512;DHT22;13414;44.534;18.700;2023-11-21T11:33:18;9.50;99.90
25512;DHT22;13414;44.534;18.700;2023-11-21T11:35:57;9.50;99.90
25512;DHT22;13414;44.534;18.700;2023-11-21T11:38:31;9.50;99.90
25512;DHT22;13414;44.534;18.700;2023-11-21T11:41:02;9.60;99.90
25512;DHT22;13414;44.534;18.700;2023-11-21T11:43:30;9.60;99.90
25512;DHT22;13414;44.534;18.700;2023-11-21T11:45:59;9.60;99.90
25512;DHT22;13414;44.534;18.700;2023-11-21T11:48:29;9.50;99.90
25512;DHT22;13414;44.534;18.700;2023-11-21T11:51:04;9.50;99.90
25512;DHT22;13414;44.534;18.700;2023-11-21T11:53:40;9.40;99.90
25512;DHT22;13414;44.534;18.700;2023-11-21T11:56:24;9.40;99.90
25512;DHT22;13414;44.534;18.700;2023-11-21T11:58:53;9.40;99.90
25512;DHT22;13414;44.534;18.700;2023-11-21T12:01:22;9.40;99.90
25512;DHT22;13414;44.534;18.700;2023-11-21T12:04:23;9.40;99.90
25512;DHT22;13414;44.534;18.700;2023-11-21T12:06:59;9.50;99.90
25512;DHT22;13414;44.534;18.700;2023-11-21T12:09:29;9.50;99.90
25512;DHT22;13414;44.534;18.700;2023-11-21T12:12:00;9.40;99.90
25512;DHT22;13414;44.534;18.700;2023-11-21T12:14:30;9.50;99.90
25512;DHT22;13414;44.534;18.700;2023-11-21T12:16:59;9.50;99.90
25512;DHT22;13414;44.534;18.700;2023-11-21T12:19:28;9.50;99.90
25512;DHT22;13414;44.534;18.700;2023-11-21T12:21:56;9.40;99.90
25512;DHT22;13414;44.534;18.700;2023-11-21T12:24:24;9.40;99.90
25512;DHT22;13414;44.534;18.700;2023-11-21T12:26:51;9.40;99.90
25512;DHT22;13414;44.534;18.700;2023-11-21T12:29:20;9.40;99.90
25512;DHT22;13414;44.534;18.700;2023-11-21T12:31:49;9.40;99.90
25512;DHT22;13414;44.534;18.700;2023-11-21T12:34:17;9.40;99.90
25512;DHT22;13414;44.534;18.700;2023-11-21T12:36:44;9.40;99.90
25512;DHT22;13414;44.534;18.700;2023-11-21T12:39:12;9.40;99.90
25512;DHT22;13414;44.534;18.700;2023-11-21T12:41:40;9.30;99.90
25512;DHT22;13414;44.534;18.700;2023-11-21T12:44:11;9.30;99.90
25512;DHT22;13414;44.534;18.700;2023-11-21T12:46:43;9.30;99.90
25512;DHT22;13414;44.534;18.700;2023-11-21T12:49:12;9.30;99.90
25512;DHT22;13414;44.534;18.700;2023-11-21T12:51:44;9.30;99.90
25512;DHT22;13414;44.534;18.700;2023-11-21T12:54:12;9.30;99.90
25512;DHT22;13414;44.534;18.700;2023-11-21T12:56:41;9.30;99.90
25512;DHT22;13414;44.534;18.700;2023-11-21T12:59:13;9.30;99.90
25512;DHT22;13414;44.534;18.700;2023-11-21T13:01:43;9.30;99.90
25512;DHT22;13414;44.534;18.700;2023-11-21T13:04:12;9.30;99.90
25512;DHT22;13414;44.534;18.700;2023-11-21T13:06:40;9.40;99.90
25512;DHT22;13414;44.534;18.700;2023-11-21T13:09:08;9.40;99.90
25512;DHT22;13414;44.534;18.700;2023-11-21T13:11:37;9.30;99.90
25512;DHT22;13414;44.534;18.700;2023-11-21T13:14:06;9.30;99.90
25512;DHT22;13414;44.534;18.700;2023-11-21T13:16:36;9.30;99.90
25512;DHT22;13414;44.534;18.700;2023-11-21T13:19:06;9.30;99.90
25512;DHT22;13414;44.534;18.700;2023-11-21T13:21:34;9.30;99.90
25512;DHT22;13414;44.534;18.700;2023-11-21T13:24:02;9.30;99.90
25512;DHT22;13414;44.534;18.700;2023-11-21T13:26:30;9.20;99.90
25512;DHT22;13414;44.534;18.700;2023-11-21T13:28:58;9.20;99.90
25512;DHT22;13414;44.534;18.700;2023-11-21T13:31:26;9.20;99.90
25512;DHT22;13414;44.534;18.700;2023-11-21T13:33:57;9.20;99.90
25512;DHT22;13414;44.534;18.700;2023-11-21T13:36:32;9.20;99.90
25512;DHT22;13414;44.534;18.700;2023-11-21T13:39:01;9.20;99.90
25512;DHT22;13414;44.534;18.700;2023-11-21T13:41:33;9.10;99.90
25512;DHT22;13414;44.534;18.700;2023-11-21T13:44:01;9.20;99.90
25512;DHT22;13414;44.534;18.700;2023-11-21T13:46:41;9.10;99.90
25512;DHT22;13414;44.534;18.700;2023-11-21T13:49:10;9.20;99.90
25512;DHT22;13414;44.534;18.700;2023-11-21T13:51:39;9.10;99.90
25512;DHT22;13414;44.534;18.700;2023-11-21T13:54:10;9.10;99.90
25512;DHT22;13414;44.534;18.700;2023-11-21T13:56:38;9.00;99.90
25512;DHT22;13414;44.534;18.700;2023-11-21T13:59:07;9.00;99.90
25512;DHT22;13414;44.534;18.700;2023-11-21T14:01:45;9.10;99.90
25512;DHT22;13414;44.534;18.700;2023-11-21T14:04:33;9.10;99.90
25512;DHT22;13414;44.534;18.700;2023-11-21T14:07:26;9.10;99.90
25512;DHT22;13414;44.534;18.700;2023-11-21T14:10:01;9.00;99.90
25512;DHT22;13414;44.534;18.700;2023-11-21T14:12:29;9.10;99.90
25512;DHT22;13414;44.534;18.700;2023-11-21T14:15:11;9.10;99.90
25512;DHT22;13414;44.534;18.700;2023-11-21T14:17:58;9.20;99.90
25512;DHT22;13414;44.534;18.700;2023-11-21T14:20:28;9.20;99.90
25512;DHT22;13414;44.534;18.700;2023-11-21T14:22:58;9.10;99.90
25512;DHT22;13414;44.534;18.700;2023-11-21T14:25:25;9.10;99.90
25512;DHT22;13414;44.534;18.700;2023-11-21T14:27:53;9.20;99.90
25512;DHT22;13414;44.534;18.700;2023-11-21T14:30:20;9.20;99.90
25512;DHT22;13414;44.534;18.700;2023-11-21T14:32:51;9.20;99.90
25512;DHT22;13414;44.534;18.700;2023-11-21T14:35:20;9.20;99.90
25512;DHT22;13414;44.534;18.700;2023-11-21T14:37:47;9.10;99.90
25512;DHT22;13414;44.534;18.700;2023-11-21T14:40:16;9.10;99.90
25512;DHT22;13414;44.534;18.700;2023-11-21T14:42:48;9.10;99.90
25512;DHT22;13414;44.534;18.700;2023-11-21T14:45:19;9.00;99.90
25512;DHT22;13414;44.534;18.700;2023-11-21T14:47:46;9.10;99.90
25512;DHT22;13414;44.534;18.700;2023-11-21T14:50:23;9.10;99.90
25512;DHT22;13414;44.534;18.700;2023-11-21T14:53:07;9.10;99.90
25512;DHT22;13414;44.534;18.700;2023-11-21T14:55:36;9.00;99.90
25512;DHT22;13414;44.534;18.700;2023-11-21T14:58:18;8.90;99.90
25512;DHT22;13414;44.534;18.700;2023-11-21T15:00:54;9.10;99.90
25512;DHT22;13414;44.534;18.700;2023-11-21T15:03:24;9.20;99.90
25512;DHT22;13414;44.534;18.700;2023-11-21T15:06:09;9.10;99.90
25512;DHT22;13414;44.534;18.700;2023-11-21T15:08:48;9.00;99.90
25512;DHT22;13414;44.534;18.700;2023-11-21T15:11:24;9.10;99.90
25512;DHT22;13414;44.534;18.700;2023-11-21T15:13:57;9.10;99.90
25512;DHT22;13414;44.534;18.700;2023-11-21T15:16:25;9.10;99.90
25512;DHT22;13414;44.534;18.700;2023-11-21T15:18:52;9.10;99.90
25512;DHT22;13414;44.534;18.700;2023-11-21T15:21:20;9.10;99.90
25512;DHT22;13414;44.534;18.700;2023-11-21T15:23:50;9.10;99.90
25512;DHT22;13414;44.534;18.700;2023-11-21T15:26:17;9.10;99.90
25512;DHT22;13414;44.534;18.700;2023-11-21T15:28:46;9.10;99.90
25512;DHT22;13414;44.534;18.700;2023-11-21T15:31:16;9.10;99.90
25512;DHT22;13414;44.534;18.700;2023-11-21T15:33:48;9.10;99.90
25512;DHT22;13414;44.534;18.700;2023-11-21T15:36:22;8.90;99.90
25512;DHT22;13414;44.534;18.700;2023-11-21T15:38:49;8.90;99.90
25512;DHT22;13414;44.534;18.700;2023-11-21T15:41:26;8.90;99.90
25512;DHT22;13414;44.534;18.700;2023-11-21T15:44:10;8.90;99.90
25512;DHT22;13414;44.534;18.700;2023-11-21T15:46:49;8.90;99.90
25512;DHT22;13414;44.534;18.700;2023-11-21T15:49:22;8.90;99.90
25512;DHT22;13414;44.534;18.700;2023-11-21T15:51:50;8.90;99.90
25512;DHT22;13414;44.534;18.700;2023-11-21T15:54:25;8.90;99.90
25512;DHT22;13414;44.534;18.700;2023-11-21T15:57:11;9.00;99.90
25512;DHT22;13414;44.534;18.700;2023-11-21T15:59:51;9.00;99.90
25512;DHT22;13414;44.534;18.700;2023-11-21T16:02:31;9.10;99.90
25512;DHT22;13414;44.534;18.700;2023-11-21T16:05:01;9.10;99.90
25512;DHT22;13414;44.534;18.700;2023-11-21T16:07:43;9.20;99.90
25512;DHT22;13414;44.534;18.700;2023-11-21T16:10:11;9.20;99.90
25512;DHT22;13414;44.534;18.700;2023-11-21T16:12:44;9.20;99.90
25512;DHT22;13414;44.534;18.700;2023-11-21T16:15:16;9.20;99.90
25512;DHT22;13414;44.534;18.700;2023-11-21T16:17:44;9.20;99.90
25512;DHT22;13414;44.534;18.700;2023-11-21T16:20:29;9.20;99.90
25512;DHT22;13414;44.534;18.700;2023-11-21T16:22:57;9.20;99.90
25512;DHT22;13414;44.534;18.700;2023-11-21T16:25:26;9.20;99.90
25512;DHT22;13414;44.534;18.700;2023-11-21T16:27:57;9.30;99.90